Forside
METAR-TAF:

METAR-TAF

Lufthavne :

Coonabarabran, Australien

Breddekreds: 31-20S, længdekreds: 149-16E, højde: 645 m

Aktuelle vejr

Denne rapport blev lavet for 48 minutter siden, kl. 08:00 UTC
Vind 5 kt fra nordvest
Temperatur 25°C
Fugtighed 32%
Tryk 1015 hPa
Sigt 10 km eller mere

METAR: YCBB 220800Z AUTO 32005KT 9999 // NCD 25/07 Q1015

Tid: 19:48 (08:48 UTC)


TAF: fraværende

Vejrobservationer og prognoser fra mere end 4000 lufthavne (METAR og TAF).

De gule og røde prikker repræsenterer de meteorologiske stationer.

Flyt musen over at se navnet på stationen.

Så klik over at se vejr observationer og prognoser.

At skifte det kort: Klik på de grønne knapper med et sort kors for at zoome ind; på den grønne knap med en bindestreg for at zoome ud; eller på de grønne pile for tilstødende kort.


METAR-TAF: